sensor_id;sensor_type;location;lat;lon;timestamp;pressure;altitude;pressure_sealevel;temperature;humidity
39455;BME280;25155;41.890;23.446;2023-08-08T00:02:19;91599.25;;;19.87;56.20
39455;BME280;25155;41.890;23.446;2023-08-08T00:04:48;91598.72;;;19.72;57.80
39455;BME280;25155;41.890;23.446;2023-08-08T00:07:17;91603.34;;;19.63;59.42
39455;BME280;25155;41.890;23.446;2023-08-08T00:09:44;91597.00;;;19.43;60.87
39455;BME280;25155;41.890;23.446;2023-08-08T00:12:12;91603.69;;;19.41;60.89
39455;BME280;25155;41.890;23.446;2023-08-08T00:14:39;91600.59;;;19.39;61.03
39455;BME280;25155;41.890;23.446;2023-08-08T00:17:06;91599.44;;;19.48;59.99
39455;BME280;25155;41.890;23.446;2023-08-08T00:19:34;91596.16;;;19.64;59.78
39455;BME280;25155;41.890;23.446;2023-08-08T00:22:01;91603.41;;;19.76;59.69
39455;BME280;25155;41.890;23.446;2023-08-08T00:24:29;91603.75;;;19.86;58.83
39455;BME280;25155;41.890;23.446;2023-08-08T00:26:57;91610.19;;;19.98;58.37
39455;BME280;25155;41.890;23.446;2023-08-08T00:29:24;91611.19;;;20.05;58.35
39455;BME280;25155;41.890;23.446;2023-08-08T00:31:51;91604.56;;;20.12;58.72
39455;BME280;25155;41.890;23.446;2023-08-08T00:34:19;91612.19;;;20.13;58.99
39455;BME280;25155;41.890;23.446;2023-08-08T00:36:49;91606.47;;;20.11;58.58
39455;BME280;25155;41.890;23.446;2023-08-08T00:39:16;91605.56;;;20.07;58.18
39455;BME280;25155;41.890;23.446;2023-08-08T00:41:45;91613.38;;;20.03;58.13
39455;BME280;25155;41.890;23.446;2023-08-08T00:44:12;91611.28;;;20.09;57.96
39455;BME280;25155;41.890;23.446;2023-08-08T00:46:41;91609.53;;;20.13;57.67
39455;BME280;25155;41.890;23.446;2023-08-08T00:49:11;91610.63;;;20.12;57.53
39455;BME280;25155;41.890;23.446;2023-08-08T00:51:38;91614.94;;;20.17;57.39
39455;BME280;25155;41.890;23.446;2023-08-08T00:54:06;91618.34;;;20.17;57.82
39455;BME280;25155;41.890;23.446;2023-08-08T00:56:35;91616.03;;;20.16;57.34
39455;BME280;25155;41.890;23.446;2023-08-08T00:59:04;91619.47;;;20.16;58.00
39455;BME280;25155;41.890;23.446;2023-08-08T01:01:31;91628.63;;;20.19;57.59
39455;BME280;25155;41.890;23.446;2023-08-08T01:03:58;91633.91;;;20.19;59.32
39455;BME280;25155;41.890;23.446;2023-08-08T01:06:29;91639.63;;;19.96;59.49
39455;BME280;25155;41.890;23.446;2023-08-08T01:09:02;91626.34;;;19.84;59.38
39455;BME280;25155;41.890;23.446;2023-08-08T01:11:34;91630.75;;;19.80;59.29
39455;BME280;25155;41.890;23.446;2023-08-08T01:14:03;91634.06;;;19.77;58.85
39455;BME280;25155;41.890;23.446;2023-08-08T01:16:33;91631.53;;;19.80;59.21
39455;BME280;25155;41.890;23.446;2023-08-08T01:19:01;91631.63;;;19.84;59.29
39455;BME280;25155;41.890;23.446;2023-08-08T01:21:29;91625.78;;;19.78;59.83
39455;BME280;25155;41.890;23.446;2023-08-08T01:24:11;91623.53;;;19.68;60.38
39455;BME280;25155;41.890;23.446;2023-08-08T01:26:38;91624.94;;;19.65;60.71
39455;BME280;25155;41.890;23.446;2023-08-08T01:29:06;91630.88;;;19.62;60.09
39455;BME280;25155;41.890;23.446;2023-08-08T01:31:33;91630.88;;;19.62;59.96
39455;BME280;25155;41.890;23.446;2023-08-08T01:34:00;91634.38;;;19.54;61.53
39455;BME280;25155;41.890;23.446;2023-08-08T01:36:30;91635.34;;;19.49;60.82
39455;BME280;25155;41.890;23.446;2023-08-08T01:39:01;91638.78;;;19.50;60.33
39455;BME280;25155;41.890;23.446;2023-08-08T01:41:34;91632.84;;;19.53;60.31
39455;BME280;25155;41.890;23.446;2023-08-08T01:44:02;91640.59;;;19.58;60.44
39455;BME280;25155;41.890;23.446;2023-08-08T01:46:31;91642.75;;;19.56;60.63
39455;BME280;25155;41.890;23.446;2023-08-08T01:48:58;91654.53;;;19.46;61.95
39455;BME280;25155;41.890;23.446;2023-08-08T01:51:26;91658.34;;;19.36;62.75
39455;BME280;25155;41.890;23.446;2023-08-08T01:53:53;91657.03;;;19.01;62.69
39455;BME280;25155;41.890;23.446;2023-08-08T01:56:21;91662.88;;;18.85;63.38
39455;BME280;25155;41.890;23.446;2023-08-08T01:58:49;91660.03;;;18.60;64.12
39455;BME280;25155;41.890;23.446;2023-08-08T02:01:17;91664.56;;;18.51;64.57
39455;BME280;25155;41.890;23.446;2023-08-08T02:03:44;91651.91;;;18.36;65.08
39455;BME280;25155;41.890;23.446;2023-08-08T02:06:12;91659.22;;;18.30;66.09
39455;BME280;25155;41.890;23.446;2023-08-08T02:08:39;91665.47;;;18.25;66.35
39455;BME280;25155;41.890;23.446;2023-08-08T02:11:06;91671.22;;;18.10;67.33
39455;BME280;25155;41.890;23.446;2023-08-08T02:13:33;91661.78;;;18.00;67.56
39455;BME280;25155;41.890;23.446;2023-08-08T02:16:02;91678.41;;;17.92;67.88
39455;BME280;25155;41.890;23.446;2023-08-08T02:18:29;91681.50;;;17.85;67.94
39455;BME280;25155;41.890;23.446;2023-08-08T02:20:56;91678.13;;;17.76;68.60
39455;BME280;25155;41.890;23.446;2023-08-08T02:23:23;91675.47;;;17.76;68.00
39455;BME280;25155;41.890;23.446;2023-08-08T02:25:52;91682.28;;;17.77;68.91
39455;BME280;25155;41.890;23.446;2023-08-08T02:28:19;91692.03;;;17.85;68.71
39455;BME280;25155;41.890;23.446;2023-08-08T02:30:46;91700.91;;;17.81;69.11
39455;BME280;25155;41.890;23.446;2023-08-08T02:33:15;91696.13;;;17.74;69.45
39455;BME280;25155;41.890;23.446;2023-08-08T02:35:42;91688.81;;;17.62;69.40
39455;BME280;25155;41.890;23.446;2023-08-08T02:38:09;91679.06;;;17.63;69.09
39455;BME280;25155;41.890;23.446;2023-08-08T02:40:36;91682.78;;;17.62;69.95
39455;BME280;25155;41.890;23.446;2023-08-08T02:43:04;91698.44;;;17.67;70.02
39455;BME280;25155;41.890;23.446;2023-08-08T02:45:32;91702.78;;;17.63;70.39
39455;BME280;25155;41.890;23.446;2023-08-08T02:48:02;91712.25;;;17.64;69.82
39455;BME280;25155;41.890;23.446;2023-08-08T02:50:31;91710.84;;;17.75;69.07
39455;BME280;25155;41.890;23.446;2023-08-08T02:52:59;91712.69;;;17.92;69.07
39455;BME280;25155;41.890;23.446;2023-08-08T02:55:26;91710.84;;;18.01;68.29
39455;BME280;25155;41.890;23.446;2023-08-08T02:57:53;91724.81;;;18.11;67.61
39455;BME280;25155;41.890;23.446;2023-08-08T03:00:20;91731.44;;;18.17;67.73
39455;BME280;25155;41.890;23.446;2023-08-08T03:02:47;91736.28;;;18.15;69.28
39455;BME280;25155;41.890;23.446;2023-08-08T03:05:14;91739.84;;;18.19;68.28
39455;BME280;25155;41.890;23.446;2023-08-08T03:07:43;91737.50;;;18.26;67.86
39455;BME280;25155;41.890;23.446;2023-08-08T03:10:10;91737.00;;;18.33;67.59
39455;BME280;25155;41.890;23.446;2023-08-08T03:12:37;91732.00;;;18.40;67.08
39455;BME280;25155;41.890;23.446;2023-08-08T03:15:09;91744.59;;;18.43;66.95
39455;BME280;25155;41.890;23.446;2023-08-08T03:17:36;91749.09;;;18.42;68.53
39455;BME280;25155;41.890;23.446;2023-08-08T03:20:04;91750.38;;;18.28;69.29
39455;BME280;25155;41.890;23.446;2023-08-08T03:22:32;91749.44;;;18.23;69.66
39455;BME280;25155;41.890;23.446;2023-08-08T03:25:01;91753.34;;;18.17;69.39
39455;BME280;25155;41.890;23.446;2023-08-08T03:27:29;91765.75;;;18.17;68.53
39455;BME280;25155;41.890;23.446;2023-08-08T03:29:57;91765.31;;;18.15;68.14
39455;BME280;25155;41.890;23.446;2023-08-08T03:32:24;91774.47;;;18.17;67.66
39455;BME280;25155;41.890;23.446;2023-08-08T03:34:51;91764.69;;;18.09;68.47
39455;BME280;25155;41.890;23.446;2023-08-08T03:37:18;91772.59;;;18.00;67.59
39455;BME280;25155;41.890;23.446;2023-08-08T03:39:45;91777.28;;;17.95;66.77
39455;BME280;25155;41.890;23.446;2023-08-08T03:42:14;91773.38;;;17.83;66.84
39455;BME280;25155;41.890;23.446;2023-08-08T03:44:41;91774.94;;;17.84;66.51
39455;BME280;25155;41.890;23.446;2023-08-08T03:47:11;91786.25;;;17.76;66.81
39455;BME280;25155;41.890;23.446;2023-08-08T03:49:38;91772.28;;;17.58;66.48
39455;BME280;25155;41.890;23.446;2023-08-08T03:52:05;91776.75;;;17.49;66.46
39455;BME280;25155;41.890;23.446;2023-08-08T03:54:33;91776.28;;;17.38;66.42
39455;BME280;25155;41.890;23.446;2023-08-08T03:57:00;91765.75;;;17.38;66.26
39455;BME280;25155;41.890;23.446;2023-08-08T03:59:29;91757.03;;;17.38;66.02
39455;BME280;25155;41.890;23.446;2023-08-08T04:01:56;91757.06;;;17.46;66.11
39455;BME280;25155;41.890;23.446;2023-08-08T04:04:24;91762.19;;;17.51;65.59
39455;BME280;25155;41.890;23.446;2023-08-08T04:06:51;91771.19;;;17.50;65.40
39455;BME280;25155;41.890;23.446;2023-08-08T04:09:18;91775.38;;;17.51;65.34
39455;BME280;25155;41.890;23.446;2023-08-08T04:11:45;91778.00;;;17.51;66.57
39455;BME280;25155;41.890;23.446;2023-08-08T04:14:12;91781.72;;;17.50;66.58
39455;BME280;25155;41.890;23.446;2023-08-08T04:16:41;91785.63;;;17.53;65.99
39455;BME280;25155;41.890;23.446;2023-08-08T04:19:08;91787.78;;;17.60;66.05
39455;BME280;25155;41.890;23.446;2023-08-08T04:21:35;91785.31;;;17.63;65.69
39455;BME280;25155;41.890;23.446;2023-08-08T04:24:02;91778.47;;;17.62;66.88
39455;BME280;25155;41.890;23.446;2023-08-08T04:26:29;91787.78;;;17.60;66.31
39455;BME280;25155;41.890;23.446;2023-08-08T04:28:57;91790.13;;;17.61;66.13
39455;BME280;25155;41.890;23.446;2023-08-08T04:31:24;91798.19;;;17.65;66.12
39455;BME280;25155;41.890;23.446;2023-08-08T04:33:53;91800.81;;;17.56;67.43
39455;BME280;25155;41.890;23.446;2023-08-08T04:36:24;91802.22;;;17.53;66.86
39455;BME280;25155;41.890;23.446;2023-08-08T04:38:51;91805.31;;;17.56;66.55
39455;BME280;25155;41.890;23.446;2023-08-08T04:41:18;91794.75;;;17.56;65.94
39455;BME280;25155;41.890;23.446;2023-08-08T04:43:45;91800.81;;;17.56;65.51
39455;BME280;25155;41.890;23.446;2023-08-08T04:46:12;91800.50;;;17.49;65.63
39455;BME280;25155;41.890;23.446;2023-08-08T04:48:39;91807.03;;;17.60;65.98
39455;BME280;25155;41.890;23.446;2023-08-08T04:51:09;91809.34;;;17.62;65.95
39455;BME280;25155;41.890;23.446;2023-08-08T04:53:36;91809.97;;;17.67;65.99
39455;BME280;25155;41.890;23.446;2023-08-08T04:56:04;91816.19;;;17.71;66.43
39455;BME280;25155;41.890;23.446;2023-08-08T04:58:31;91816.81;;;17.77;66.45
39455;BME280;25155;41.890;23.446;2023-08-08T05:00:58;91817.13;;;17.84;66.44
39455;BME280;25155;41.890;23.446;2023-08-08T05:03:25;91817.00;;;17.89;66.46
39455;BME280;25155;41.890;23.446;2023-08-08T05:05:53;91817.00;;;17.89;67.39
39455;BME280;25155;41.890;23.446;2023-08-08T05:08:21;91822.72;;;17.74;67.18
39455;BME280;25155;41.890;23.446;2023-08-08T05:10:48;91834.03;;;17.66;67.18
39455;BME280;25155;41.890;23.446;2023-08-08T05:13:16;91841.91;;;17.57;68.38
39455;BME280;25155;41.890;23.446;2023-08-08T05:15:43;91844.69;;;17.52;69.33
39455;BME280;25155;41.890;23.446;2023-08-08T05:18:10;91845.97;;;17.55;69.10
39455;BME280;25155;41.890;23.446;2023-08-08T05:20:37;91849.38;;;17.64;68.53
39455;BME280;25155;41.890;23.446;2023-08-08T05:23:04;91853.28;;;17.66;69.03
39455;BME280;25155;41.890;23.446;2023-08-08T05:25:33;91855.28;;;17.69;68.44
39455;BME280;25155;41.890;23.446;2023-08-08T05:28:00;91857.78;;;17.75;69.52
39455;BME280;25155;41.890;23.446;2023-08-08T05:30:27;91866.47;;;17.75;69.80
39455;BME280;25155;41.890;23.446;2023-08-08T05:32:55;91858.72;;;17.79;69.83
39455;BME280;25155;41.890;23.446;2023-08-08T05:35:22;91862.44;;;17.78;70.82
39455;BME280;25155;41.890;23.446;2023-08-08T05:37:49;91866.47;;;17.75;71.55
39455;BME280;25155;41.890;23.446;2023-08-08T05:40:16;91869.88;;;17.76;71.76
39455;BME280;25155;41.890;23.446;2023-08-08T05:42:45;91875.47;;;17.74;72.21
39455;BME280;25155;41.890;23.446;2023-08-08T05:45:12;91868.78;;;17.77;71.43
39455;BME280;25155;41.890;23.446;2023-08-08T05:47:39;91875.78;;;17.81;70.44
39455;BME280;25155;41.890;23.446;2023-08-08T05:50:07;91881.22;;;17.85;69.92
39455;BME280;25155;41.890;23.446;2023-08-08T05:52:35;91889.59;;;17.78;68.14
39455;BME280;25155;41.890;23.446;2023-08-08T05:55:02;91896.41;;;17.70;69.03
39455;BME280;25155;41.890;23.446;2023-08-08T05:57:29;91884.47;;;17.73;68.88
39455;BME280;25155;41.890;23.446;2023-08-08T05:59:58;91898.44;;;17.82;68.00
39455;BME280;25155;41.890;23.446;2023-08-08T06:02:25;91901.13;;;17.91;67.57
39455;BME280;25155;41.890;23.446;2023-08-08T06:04:52;91904.41;;;17.97;66.84
39455;BME280;25155;41.890;23.446;2023-08-08T06:07:19;91903.16;;;18.03;67.06
39455;BME280;25155;41.890;23.446;2023-08-08T06:09:46;91901.94;;;18.09;66.66
39455;BME280;25155;41.890;23.446;2023-08-08T06:12:14;91899.91;;;18.15;66.40
39455;BME280;25155;41.890;23.446;2023-08-08T06:14:41;91906.59;;;18.21;66.67
39455;BME280;25155;41.890;23.446;2023-08-08T06:17:09;91900.06;;;18.27;65.99
39455;BME280;25155;41.890;23.446;2023-08-08T06:19:37;91898.81;;;18.33;66.33
39455;BME280;25155;41.890;23.446;2023-08-08T06:22:04;91897.44;;;18.36;66.16
39455;BME280;25155;41.890;23.446;2023-08-08T06:24:31;91896.34;;;18.37;67.02
39455;BME280;25155;41.890;23.446;2023-08-08T06:26:59;91897.91;;;18.38;67.09
39455;BME280;25155;41.890;23.446;2023-08-08T06:29:26;91902.09;;;18.48;67.22
39455;BME280;25155;41.890;23.446;2023-08-08T06:31:53;91906.28;;;18.49;67.80
39455;BME280;25155;41.890;23.446;2023-08-08T06:34:22;91902.84;;;18.48;68.07
39455;BME280;25155;41.890;23.446;2023-08-08T06:36:49;91905.19;;;18.41;68.47
39455;BME280;25155;41.890;23.446;2023-08-08T06:39:18;91904.56;;;18.26;68.63
39455;BME280;25155;41.890;23.446;2023-08-08T06:41:47;91901.94;;;18.26;67.54
39455;BME280;25155;41.890;23.446;2023-08-08T06:44:14;91897.91;;;18.29;68.01
39455;BME280;25155;41.890;23.446;2023-08-08T06:46:41;91905.19;;;18.23;68.33
39455;BME280;25155;41.890;23.446;2023-08-08T06:49:09;91900.41;;;18.25;68.45
39455;BME280;25155;41.890;23.446;2023-08-08T06:51:37;91903.97;;;18.30;68.17
39455;BME280;25155;41.890;23.446;2023-08-08T06:54:04;91911.41;;;18.28;68.87
39455;BME280;25155;41.890;23.446;2023-08-08T06:56:33;91913.91;;;18.33;68.29
39455;BME280;25155;41.890;23.446;2023-08-08T06:59:00;91917.78;;;18.26;67.34
39455;BME280;25155;41.890;23.446;2023-08-08T07:01:27;91920.88;;;18.29;67.30
39455;BME280;25155;41.890;23.446;2023-08-08T07:03:55;91923.66;;;18.23;68.39
39455;BME280;25155;41.890;23.446;2023-08-08T07:06:23;91918.69;;;18.13;69.37
39455;BME280;25155;41.890;23.446;2023-08-08T07:08:51;91926.16;;;18.11;68.53
39455;BME280;25155;41.890;23.446;2023-08-08T07:11:18;91914.97;;;18.14;67.90
39455;BME280;25155;41.890;23.446;2023-08-08T07:13:46;91923.81;;;18.27;68.69
39455;BME280;25155;41.890;23.446;2023-08-08T07:16:13;91928.50;;;18.21;67.81
39455;BME280;25155;41.890;23.446;2023-08-08T07:18:40;91929.25;;;18.22;68.28
39455;BME280;25155;41.890;23.446;2023-08-08T07:21:07;91926.91;;;18.20;67.43
39455;BME280;25155;41.890;23.446;2023-08-08T07:23:34;91928.03;;;18.11;68.37
39455;BME280;25155;41.890;23.446;2023-08-08T07:26:03;91924.44;;;18.06;67.87
39455;BME280;25155;41.890;23.446;2023-08-08T07:28:30;91928.78;;;18.11;68.06
39455;BME280;25155;41.890;23.446;2023-08-08T07:30:58;91924.59;;;18.10;66.84
39455;BME280;25155;41.890;23.446;2023-08-08T07:33:25;91927.56;;;18.17;68.83
39455;BME280;25155;41.890;23.446;2023-08-08T07:35:52;91919.50;;;18.31;68.67
39455;BME280;25155;41.890;23.446;2023-08-08T07:38:19;91919.31;;;18.45;66.71
39455;BME280;25155;41.890;23.446;2023-08-08T07:40:46;91924.16;;;18.60;68.35
39455;BME280;25155;41.890;23.446;2023-08-08T07:43:15;91928.19;;;18.58;66.68
39455;BME280;25155;41.890;23.446;2023-08-08T07:45:43;91928.63;;;18.60;67.20
39455;BME280;25155;41.890;23.446;2023-08-08T07:48:10;91930.97;;;18.61;65.81
39455;BME280;25155;41.890;23.446;2023-08-08T07:50:37;91925.38;;;18.63;67.21
39455;BME280;25155;41.890;23.446;2023-08-08T07:53:04;91936.41;;;18.74;66.94
39455;BME280;25155;41.890;23.446;2023-08-08T07:55:31;91928.03;;;18.89;65.27
39455;BME280;25155;41.890;23.446;2023-08-08T07:57:59;91925.19;;;19.12;65.58
39455;BME280;25155;41.890;23.446;2023-08-08T08:00:27;91929.38;;;19.13;65.22
39455;BME280;25155;41.890;23.446;2023-08-08T08:02:54;91937.91;;;19.10;64.93
39455;BME280;25155;41.890;23.446;2023-08-08T08:05:21;91941.66;;;19.09;64.95
39455;BME280;25155;41.890;23.446;2023-08-08T08:07:48;91941.66;;;19.09;64.23
39455;BME280;25155;41.890;23.446;2023-08-08T08:10:16;91940.72;;;19.05;62.70
39455;BME280;25155;41.890;23.446;2023-08-08T08:12:43;91945.25;;;19.04;63.53
39455;BME280;25155;41.890;23.446;2023-08-08T08:15:10;91941.06;;;18.94;63.54
39455;BME280;25155;41.890;23.446;2023-08-08T08:17:39;91942.00;;;18.98;62.95
39455;BME280;25155;41.890;23.446;2023-08-08T08:20:08;91942.31;;;18.97;62.84
39455;BME280;25155;41.890;23.446;2023-08-08T08:22:37;91944.81;;;18.93;62.37
39455;BME280;25155;41.890;23.446;2023-08-08T08:25:05;91932.06;;;18.95;62.88
39455;BME280;25155;41.890;23.446;2023-08-08T08:27:35;91935.00;;;18.94;61.92
39455;BME280;25155;41.890;23.446;2023-08-08T08:30:02;91945.25;;;19.04;61.53
39455;BME280;25155;41.890;23.446;2023-08-08T08:32:32;91949.91;;;19.07;62.36
39455;BME280;25155;41.890;23.446;2023-08-08T08:35:01;91951.44;;;19.17;61.96
39455;BME280;25155;41.890;23.446;2023-08-08T08:37:29;91940.97;;;19.29;61.93
39455;BME280;25155;41.890;23.446;2023-08-08T08:39:56;91946.59;;;19.36;60.83
39455;BME280;25155;41.890;23.446;2023-08-08T08:42:26;91942.34;;;19.44;60.03
39455;BME280;25155;41.890;23.446;2023-08-08T08:44:54;91939.19;;;19.51;61.35
39455;BME280;25155;41.890;23.446;2023-08-08T08:47:25;91937.75;;;19.62;60.13
39455;BME280;25155;41.890;23.446;2023-08-08T08:49:52;91934.16;;;19.76;59.88
39455;BME280;25155;41.890;23.446;2023-08-08T08:52:21;91935.97;;;19.84;59.17
39455;BME280;25155;41.890;23.446;2023-08-08T08:54:48;91926.75;;;19.90;58.90
39455;BME280;25155;41.890;23.446;2023-08-08T08:57:16;91928.47;;;19.95;58.89
39455;BME280;25155;41.890;23.446;2023-08-08T08:59:43;91922.34;;;20.03;58.26
39455;BME280;25155;41.890;23.446;2023-08-08T09:02:10;91921.88;;;20.22;58.60
39455;BME280;25155;41.890;23.446;2023-08-08T09:04:38;91929.44;;;20.32;56.85
39455;BME280;25155;41.890;23.446;2023-08-08T09:07:06;91921.47;;;20.41;56.10
39455;BME280;25155;41.890;23.446;2023-08-08T09:09:35;91925.91;;;20.49;53.82
39455;BME280;25155;41.890;23.446;2023-08-08T09:12:04;91917.66;;;20.51;55.31
39455;BME280;25155;41.890;23.446;2023-08-08T09:14:32;91903.94;;;20.49;55.73
39455;BME280;25155;41.890;23.446;2023-08-08T09:16:59;91914.16;;;20.59;55.01
39455;BME280;25155;41.890;23.446;2023-08-08T09:19:26;91917.81;;;20.88;55.55
39455;BME280;25155;41.890;23.446;2023-08-08T09:21:53;91918.44;;;21.18;56.44
39455;BME280;25155;41.890;23.446;2023-08-08T09:24:20;91924.78;;;21.38;54.22
39455;BME280;25155;41.890;23.446;2023-08-08T09:26:49;91915.72;;;21.39;52.27
39455;BME280;25155;41.890;23.446;2023-08-08T09:29:16;91921.06;;;21.51;52.26
39455;BME280;25155;41.890;23.446;2023-08-08T09:31:46;91922.66;;;21.65;51.11
39455;BME280;25155;41.890;23.446;2023-08-08T09:34:13;91915.91;;;21.80;51.69
39455;BME280;25155;41.890;23.446;2023-08-08T09:36:40;91906.25;;;21.87;50.35
39455;BME280;25155;41.890;23.446;2023-08-08T09:39:07;91911.69;;;21.91;50.32
39455;BME280;25155;41.890;23.446;2023-08-08T09:41:35;91910.25;;;21.93;48.36
39455;BME280;25155;41.890;23.446;2023-08-08T09:44:03;91916.75;;;21.96;48.46
39455;BME280;25155;41.890;23.446;2023-08-08T09:46:30;91887.13;;;21.82;48.51
39455;BME280;25155;41.890;23.446;2023-08-08T09:48:58;91914.56;;;21.73;49.30
39455;BME280;25155;41.890;23.446;2023-08-08T09:51:26;91913.34;;;21.83;51.07
39455;BME280;25155;41.890;23.446;2023-08-08T09:53:54;91918.75;;;21.99;50.94
39455;BME280;25155;41.890;23.446;2023-08-08T09:56:23;91917.75;;;22.16;50.61
39455;BME280;25155;41.890;23.446;2023-08-08T09:58:51;91917.75;;;22.16;48.79
39455;BME280;25155;41.890;23.446;2023-08-08T10:01:20;91912.00;;;22.02;47.27
39455;BME280;25155;41.890;23.446;2023-08-08T10:03:48;91919.63;;;21.91;46.87
39455;BME280;25155;41.890;23.446;2023-08-08T10:06:15;91920.66;;;21.86;48.56
39455;BME280;25155;41.890;23.446;2023-08-08T10:08:42;91919.09;;;21.85;47.05
39455;BME280;25155;41.890;23.446;2023-08-08T10:11:10;91923.75;;;21.88;47.79
39455;BME280;25155;41.890;23.446;2023-08-08T10:13:47;91912.69;;;21.74;47.55
39455;BME280;25155;41.890;23.446;2023-08-08T10:16:15;91917.88;;;21.83;47.87
39455;BME280;25155;41.890;23.446;2023-08-08T10:18:44;91917.44;;;21.81;47.02
39455;BME280;25155;41.890;23.446;2023-08-08T10:21:12;91922.09;;;21.84;47.69
39455;BME280;25155;41.890;23.446;2023-08-08T10:23:39;91914.78;;;21.93;46.33
39455;BME280;25155;41.890;23.446;2023-08-08T10:26:17;91919.75;;;22.07;46.66
39455;BME280;25155;41.890;23.446;2023-08-08T10:28:53;91927.84;;;21.98;45.53
39455;BME280;25155;41.890;23.446;2023-08-08T10:31:22;91910.03;;;21.99;45.47
39455;BME280;25155;41.890;23.446;2023-08-08T10:34:01;91920.50;;;22.07;45.41
39455;BME280;25155;41.890;23.446;2023-08-08T10:36:49;91914.44;;;22.07;44.98
39455;BME280;25155;41.890;23.446;2023-08-08T10:39:18;91902.81;;;22.11;44.56
39455;BME280;25155;41.890;23.446;2023-08-08T10:41:47;91912.78;;;22.15;45.27
39455;BME280;25155;41.890;23.446;2023-08-08T10:44:22;91901.03;;;22.16;45.72
39455;BME280;25155;41.890;23.446;2023-08-08T10:46:52;91900.22;;;22.27;45.94
39455;BME280;25155;41.890;23.446;2023-08-08T10:49:22;91912.22;;;22.34;45.53
39455;BME280;25155;41.890;23.446;2023-08-08T10:51:50;91894.88;;;22.52;44.82
39455;BME280;25155;41.890;23.446;2023-08-08T10:54:19;91892.72;;;22.70;44.95
39455;BME280;25155;41.890;23.446;2023-08-08T10:56:50;91904.59;;;22.60;44.31
39455;BME280;25155;41.890;23.446;2023-08-08T10:59:19;91897.03;;;22.75;44.79
39455;BME280;25155;41.890;23.446;2023-08-08T11:01:48;91908.97;;;22.81;45.21
39455;BME280;25155;41.890;23.446;2023-08-08T11:04:18;91894.06;;;22.92;43.20
39455;BME280;25155;41.890;23.446;2023-08-08T11:06:49;91885.47;;;22.83;42.38
39455;BME280;25155;41.890;23.446;2023-08-08T11:09:17;91893.88;;;22.85;42.73
39455;BME280;25155;41.890;23.446;2023-08-08T11:11:45;91893.78;;;22.81;43.36
39455;BME280;25155;41.890;23.446;2023-08-08T11:14:13;91892.78;;;23.02;43.77
39455;BME280;25155;41.890;23.446;2023-08-08T11:16:41;91890.03;;;23.11;43.47
39455;BME280;25155;41.890;23.446;2023-08-08T11:19:09;91903.25;;;23.23;42.85
39455;BME280;25155;41.890;23.446;2023-08-08T11:21:39;91896.91;;;23.28;42.73
39455;BME280;25155;41.890;23.446;2023-08-08T11:24:08;91895.88;;;23.32;42.05
39455;BME280;25155;41.890;23.446;2023-08-08T11:26:36;91892.44;;;23.48;42.92
39455;BME280;25155;41.890;23.446;2023-08-08T11:29:05;91897.00;;;23.47;41.47
39455;BME280;25155;41.890;23.446;2023-08-08T11:31:34;91910.56;;;23.42;41.80
39455;BME280;25155;41.890;23.446;2023-08-08T11:34:01;91886.63;;;23.42;40.68
39455;BME280;25155;41.890;23.446;2023-08-08T11:36:29;91884.38;;;23.44;41.51
39455;BME280;25155;41.890;23.446;2023-08-08T11:38:57;91891.34;;;23.49;41.55
39455;BME280;25155;41.890;23.446;2023-08-08T11:41:26;91891.84;;;23.70;40.99
39455;BME280;25155;41.890;23.446;2023-08-08T11:43:53;91877.69;;;23.82;40.81
39455;BME280;25155;41.890;23.446;2023-08-08T11:46:23;91885.91;;;23.77;40.28
39455;BME280;25155;41.890;23.446;2023-08-08T11:48:51;91888.03;;;23.71;39.84
39455;BME280;25155;41.890;23.446;2023-08-08T11:51:18;91870.19;;;23.72;41.12
39455;BME280;25155;41.890;23.446;2023-08-08T11:53:49;91866.47;;;23.76;41.08
39455;BME280;25155;41.890;23.446;2023-08-08T11:56:19;91873.19;;;23.86;40.59
39455;BME280;25155;41.890;23.446;2023-08-08T11:58:49;91873.66;;;23.88;39.96
39455;BME280;25155;41.890;23.446;2023-08-08T12:01:19;91867.97;;;23.90;40.79
39455;BME280;25155;41.890;23.446;2023-08-08T12:03:47;91864.94;;;23.91;41.22
39455;BME280;25155;41.890;23.446;2023-08-08T12:06:15;91858.59;;;23.80;39.52
39455;BME280;25155;41.890;23.446;2023-08-08T12:08:44;91867.97;;;23.74;39.76
39455;BME280;25155;41.890;23.446;2023-08-08T12:11:12;91857.81;;;23.80;40.59
39455;BME280;25155;41.890;23.446;2023-08-08T12:13:42;91869.25;;;23.64;39.02
39455;BME280;25155;41.890;23.446;2023-08-08T12:16:11;91864.00;;;23.68;39.18
39455;BME280;25155;41.890;23.446;2023-08-08T12:18:40;91855.47;;;23.78;39.73
39455;BME280;25155;41.890;23.446;2023-08-08T12:21:08;91848.47;;;23.86;38.94
39455;BME280;25155;41.890;23.446;2023-08-08T12:23:36;91851.13;;;23.86;38.84
39455;BME280;25155;41.890;23.446;2023-08-08T12:26:04;91848.53;;;23.89;39.32
39455;BME280;25155;41.890;23.446;2023-08-08T12:28:32;91846.13;;;24.00;38.54
39455;BME280;25155;41.890;23.446;2023-08-08T12:30:59;91843.72;;;23.95;39.61
39455;BME280;25155;41.890;23.446;2023-08-08T12:33:28;91842.19;;;23.94;38.86
39455;BME280;25155;41.890;23.446;2023-08-08T12:35:55;91849.53;;;24.01;38.40
39455;BME280;25155;41.890;23.446;2023-08-08T12:38:22;91841.81;;;24.11;38.52
39455;BME280;25155;41.890;23.446;2023-08-08T12:40:49;91848.81;;;24.20;38.71
39455;BME280;25155;41.890;23.446;2023-08-08T12:43:16;91844.31;;;24.24;37.86
39455;BME280;25155;41.890;23.446;2023-08-08T12:45:44;91836.31;;;24.24;38.37
39455;BME280;25155;41.890;23.446;2023-08-08T12:48:11;91839.72;;;24.40;38.56
39455;BME280;25155;41.890;23.446;2023-08-08T12:50:40;91851.13;;;24.41;38.26
39455;BME280;25155;41.890;23.446;2023-08-08T12:53:08;91846.28;;;24.27;37.52
39455;BME280;25155;41.890;23.446;2023-08-08T12:55:35;91840.25;;;24.30;37.95